Eland, WI (54427)

2:45 PM CDT on August 30, 2015 (GMT -0500)
Wittenberg Wi. | | Change Station
CLOSE
Current Station
Personal Weather Station
Location: Wittenberg, WI
Elevation: 1191 ft
Nearby Weather Stations

Elev 1191 ft 44.83 °N, 89.17 °W | Updated 5 seconds ago

Clear
Clear
76.3 °F
Feels Like 78 °F
N
1.3
Wind Variable Wind from South
Gusts 2.5 mph

Today
High -- | Low -- °F
--% Chance of Precip.
Yesterday
High -- | Low -- °F
Precip. -- in
6:16 AM 7:37 PM
Full, 98% visible
Pressure 30.03 in
Visibility 10.0 miles
Clouds Clear
Heat Index 78 °F
Dew Point 67 °F
Humidity 72%
Rainfall 0.00 in
Snow Depth Not available.
UV 3.0 out of 12
Pollen 10.00 out of 12
Air Quality Not available.
Flu Activity Not available.
METAR KAUW 301854Z AUTO 19008KT 10SM CLR 23/17 A3002 RMK AO2 SLP169 T02330167
Pressure 30.03 in
Visibility 10.0 miles
Clouds Clear
Heat Index 78 °F
Dew Point 67 °F
Humidity 72%
Rainfall 0.00 in
Snow Depth Not available.
UV 3.0 out of 12
Pollen 10.00 out of 12
Air Quality Not available.
Flu Activity Not available.
METAR KAUW 301854Z AUTO 19008KT 10SM CLR 23/17 A3002 RMK AO2 SLP169 T02330167

10-Day Weather Forecast

×

Almanac

Astronomy

Aug. 30, 2015 Rise Set
Actual Time
Civil Twilight
Nautical Twilight
Astronomical Twilight
Moon
Length of Visible Light
Length of Day
Tomorrow will be .
, % of the Moon is Illuminated

Today's Extremes

State Highs State Lows

Community

WunderPhotos

Upload Photos

1,851,041 photos uploaded!

WunderBlogs® & News

Nearby

Air Quality

  Air Quality AQ Index Pollutant
Not available.

Snow Depth

Station Depth Elevation

Earthquake Activity

City Distance Mag. Time & Date
Minimum magnitude displayed is 2.5.

Coastal Water Temperatures

Place Temperature

Stations

Nearby Weather Stations

Station Location Temp. Windchill Dew Point Humidity Wind Precip. Elev Updated Type